sensor_id;sensor_type;location;lat;lon;timestamp;P1;durP1;ratioP1;P2;durP2;ratioP2
50781;SDS011;36749;37.428;-121.972;2024-02-16T00:00:30;7.20;;;1.80;;
50781;SDS011;36749;37.428;-121.972;2024-02-16T00:02:57;9.27;;;2.20;;
50781;SDS011;36749;37.428;-121.972;2024-02-16T00:05:24;8.65;;;2.10;;
50781;SDS011;36749;37.428;-121.972;2024-02-16T00:07:50;10.95;;;2.20;;
50781;SDS011;36749;37.428;-121.972;2024-02-16T00:10:16;10.40;;;2.17;;
50781;SDS011;36749;37.428;-121.972;2024-02-16T00:12:45;8.95;;;2.15;;
50781;SDS011;36749;37.428;-121.972;2024-02-16T00:15:11;9.48;;;1.92;;
50781;SDS011;36749;37.428;-121.972;2024-02-16T00:17:38;6.07;;;2.25;;
50781;SDS011;36749;37.428;-121.972;2024-02-16T00:20:04;6.38;;;2.00;;
50781;SDS011;36749;37.428;-121.972;2024-02-16T00:22:32;14.15;;;2.40;;
50781;SDS011;36749;37.428;-121.972;2024-02-16T00:24:59;12.77;;;2.58;;
50781;SDS011;36749;37.428;-121.972;2024-02-16T00:27:26;12.70;;;3.08;;
50781;SDS011;36749;37.428;-121.972;2024-02-16T00:29:52;12.63;;;2.80;;
50781;SDS011;36749;37.428;-121.972;2024-02-16T00:32:19;8.15;;;2.53;;
50781;SDS011;36749;37.428;-121.972;2024-02-16T00:34:45;10.30;;;2.90;;
50781;SDS011;36749;37.428;-121.972;2024-02-16T00:37:11;13.40;;;2.53;;
50781;SDS011;36749;37.428;-121.972;2024-02-16T00:39:38;12.35;;;3.80;;
50781;SDS011;36749;37.428;-121.972;2024-02-16T00:42:07;9.60;;;2.20;;
50781;SDS011;36749;37.428;-121.972;2024-02-16T00:44:34;11.98;;;2.92;;
50781;SDS011;36749;37.428;-121.972;2024-02-16T00:47:00;14.40;;;3.88;;
50781;SDS011;36749;37.428;-121.972;2024-02-16T00:49:34;9.98;;;2.95;;
50781;SDS011;36749;37.428;-121.972;2024-02-16T00:52:01;15.82;;;2.97;;
50781;SDS011;36749;37.428;-121.972;2024-02-16T00:54:27;17.23;;;3.45;;
50781;SDS011;36749;37.428;-121.972;2024-02-16T00:56:53;16.23;;;3.35;;
50781;SDS011;36749;37.428;-121.972;2024-02-16T00:59:20;15.07;;;3.20;;
50781;SDS011;36749;37.428;-121.972;2024-02-16T01:01:46;18.33;;;3.90;;
50781;SDS011;36749;37.428;-121.972;2024-02-16T01:04:12;13.63;;;3.63;;
50781;SDS011;36749;37.428;-121.972;2024-02-16T01:06:38;16.15;;;3.72;;
50781;SDS011;36749;37.428;-121.972;2024-02-16T01:09:05;14.00;;;3.63;;
50781;SDS011;36749;37.428;-121.972;2024-02-16T01:11:31;18.80;;;3.42;;
50781;SDS011;36749;37.428;-121.972;2024-02-16T01:13:57;13.80;;;3.03;;
50781;SDS011;36749;37.428;-121.972;2024-02-16T01:16:23;20.00;;;4.78;;
50781;SDS011;36749;37.428;-121.972;2024-02-16T01:18:50;20.08;;;3.55;;
50781;SDS011;36749;37.428;-121.972;2024-02-16T01:21:16;16.08;;;3.70;;
50781;SDS011;36749;37.428;-121.972;2024-02-16T01:23:43;17.92;;;3.78;;
50781;SDS011;36749;37.428;-121.972;2024-02-16T01:26:10;22.40;;;4.22;;
50781;SDS011;36749;37.428;-121.972;2024-02-16T01:28:36;22.88;;;4.63;;
50781;SDS011;36749;37.428;-121.972;2024-02-16T01:31:02;19.20;;;4.15;;
50781;SDS011;36749;37.428;-121.972;2024-02-16T01:33:28;22.70;;;4.75;;
50781;SDS011;36749;37.428;-121.972;2024-02-16T01:35:55;21.83;;;4.15;;
50781;SDS011;36749;37.428;-121.972;2024-02-16T01:38:21;20.67;;;3.92;;
50781;SDS011;36749;37.428;-121.972;2024-02-16T01:40:48;18.98;;;4.20;;
50781;SDS011;36749;37.428;-121.972;2024-02-16T01:43:18;20.02;;;4.22;;
50781;SDS011;36749;37.428;-121.972;2024-02-16T01:45:45;18.55;;;3.72;;
50781;SDS011;36749;37.428;-121.972;2024-02-16T01:48:12;21.77;;;4.05;;
50781;SDS011;36749;37.428;-121.972;2024-02-16T01:50:42;22.98;;;4.43;;
50781;SDS011;36749;37.428;-121.972;2024-02-16T01:53:09;21.67;;;4.65;;
50781;SDS011;36749;37.428;-121.972;2024-02-16T01:55:37;17.60;;;4.88;;
50781;SDS011;36749;37.428;-121.972;2024-02-16T01:58:04;20.17;;;4.07;;
50781;SDS011;36749;37.428;-121.972;2024-02-16T02:00:30;24.17;;;5.85;;
50781;SDS011;36749;37.428;-121.972;2024-02-16T02:02:56;25.13;;;4.68;;
50781;SDS011;36749;37.428;-121.972;2024-02-16T02:05:23;15.30;;;3.95;;
50781;SDS011;36749;37.428;-121.972;2024-02-16T02:07:49;20.95;;;4.05;;
50781;SDS011;36749;37.428;-121.972;2024-02-16T02:10:15;19.40;;;4.53;;
50781;SDS011;36749;37.428;-121.972;2024-02-16T02:12:42;17.75;;;4.57;;
50781;SDS011;36749;37.428;-121.972;2024-02-16T02:15:09;25.85;;;5.47;;
50781;SDS011;36749;37.428;-121.972;2024-02-16T02:17:37;23.05;;;4.43;;
50781;SDS011;36749;37.428;-121.972;2024-02-16T02:20:04;21.33;;;3.88;;
50781;SDS011;36749;37.428;-121.972;2024-02-16T02:22:34;16.85;;;3.78;;
50781;SDS011;36749;37.428;-121.972;2024-02-16T02:25:00;22.35;;;4.97;;
50781;SDS011;36749;37.428;-121.972;2024-02-16T02:27:27;23.30;;;3.67;;
50781;SDS011;36749;37.428;-121.972;2024-02-16T02:29:53;17.48;;;3.78;;
50781;SDS011;36749;37.428;-121.972;2024-02-16T02:32:19;21.02;;;4.20;;
50781;SDS011;36749;37.428;-121.972;2024-02-16T02:34:45;21.38;;;6.32;;
50781;SDS011;36749;37.428;-121.972;2024-02-16T02:37:11;21.77;;;4.15;;
50781;SDS011;36749;37.428;-121.972;2024-02-16T02:39:38;18.02;;;4.38;;
50781;SDS011;36749;37.428;-121.972;2024-02-16T02:42:05;15.93;;;5.32;;
50781;SDS011;36749;37.428;-121.972;2024-02-16T02:44:33;30.88;;;5.45;;
50781;SDS011;36749;37.428;-121.972;2024-02-16T02:46:59;18.42;;;5.28;;
50781;SDS011;36749;37.428;-121.972;2024-02-16T02:49:25;26.13;;;5.93;;
50781;SDS011;36749;37.428;-121.972;2024-02-16T02:51:52;21.75;;;5.32;;
50781;SDS011;36749;37.428;-121.972;2024-02-16T02:54:18;24.10;;;4.40;;
50781;SDS011;36749;37.428;-121.972;2024-02-16T02:56:44;21.83;;;4.20;;
50781;SDS011;36749;37.428;-121.972;2024-02-16T02:59:10;18.20;;;4.75;;
50781;SDS011;36749;37.428;-121.972;2024-02-16T03:01:36;19.00;;;4.20;;
50781;SDS011;36749;37.428;-121.972;2024-02-16T03:04:03;24.65;;;3.80;;
50781;SDS011;36749;37.428;-121.972;2024-02-16T03:06:29;24.80;;;4.93;;
50781;SDS011;36749;37.428;-121.972;2024-02-16T03:08:55;19.50;;;4.85;;
50781;SDS011;36749;37.428;-121.972;2024-02-16T03:11:22;21.00;;;4.35;;
50781;SDS011;36749;37.428;-121.972;2024-02-16T03:13:48;19.63;;;3.85;;
50781;SDS011;36749;37.428;-121.972;2024-02-16T03:16:14;21.30;;;4.18;;
50781;SDS011;36749;37.428;-121.972;2024-02-16T03:18:40;18.08;;;3.67;;
50781;SDS011;36749;37.428;-121.972;2024-02-16T03:21:06;15.93;;;3.88;;
50781;SDS011;36749;37.428;-121.972;2024-02-16T03:23:33;14.63;;;3.50;;
50781;SDS011;36749;37.428;-121.972;2024-02-16T03:25:59;20.95;;;3.92;;
50781;SDS011;36749;37.428;-121.972;2024-02-16T03:28:25;15.88;;;3.33;;
50781;SDS011;36749;37.428;-121.972;2024-02-16T03:30:51;25.45;;;5.22;;
50781;SDS011;36749;37.428;-121.972;2024-02-16T03:33:17;20.88;;;4.07;;
50781;SDS011;36749;37.428;-121.972;2024-02-16T03:35:44;24.38;;;4.10;;
50781;SDS011;36749;37.428;-121.972;2024-02-16T03:38:10;27.52;;;4.93;;
50781;SDS011;36749;37.428;-121.972;2024-02-16T03:40:36;27.83;;;5.63;;
50781;SDS011;36749;37.428;-121.972;2024-02-16T03:43:02;17.45;;;4.20;;
50781;SDS011;36749;37.428;-121.972;2024-02-16T03:45:29;25.85;;;5.05;;
50781;SDS011;36749;37.428;-121.972;2024-02-16T03:47:55;19.20;;;4.70;;
50781;SDS011;36749;37.428;-121.972;2024-02-16T03:50:21;21.65;;;4.43;;
50781;SDS011;36749;37.428;-121.972;2024-02-16T03:52:47;17.75;;;3.80;;
50781;SDS011;36749;37.428;-121.972;2024-02-16T03:55:14;20.35;;;5.00;;
50781;SDS011;36749;37.428;-121.972;2024-02-16T03:57:40;19.30;;;4.72;;
50781;SDS011;36749;37.428;-121.972;2024-02-16T04:00:09;24.67;;;5.28;;
50781;SDS011;36749;37.428;-121.972;2024-02-16T04:02:38;21.08;;;4.70;;
50781;SDS011;36749;37.428;-121.972;2024-02-16T04:05:05;21.95;;;4.05;;
50781;SDS011;36749;37.428;-121.972;2024-02-16T04:07:33;19.85;;;4.15;;
50781;SDS011;36749;37.428;-121.972;2024-02-16T04:10:00;20.02;;;4.55;;
50781;SDS011;36749;37.428;-121.972;2024-02-16T04:12:26;25.13;;;4.63;;
50781;SDS011;36749;37.428;-121.972;2024-02-16T04:14:52;26.92;;;4.68;;
50781;SDS011;36749;37.428;-121.972;2024-02-16T04:17:18;24.60;;;4.10;;
50781;SDS011;36749;37.428;-121.972;2024-02-16T04:19:45;24.10;;;5.18;;
50781;SDS011;36749;37.428;-121.972;2024-02-16T04:22:12;19.35;;;4.55;;
50781;SDS011;36749;37.428;-121.972;2024-02-16T04:24:38;19.58;;;4.57;;
50781;SDS011;36749;37.428;-121.972;2024-02-16T04:27:04;17.20;;;4.65;;
50781;SDS011;36749;37.428;-121.972;2024-02-16T04:29:30;20.63;;;4.80;;
50781;SDS011;36749;37.428;-121.972;2024-02-16T04:31:57;25.95;;;5.40;;
50781;SDS011;36749;37.428;-121.972;2024-02-16T04:34:23;22.80;;;4.38;;
50781;SDS011;36749;37.428;-121.972;2024-02-16T04:36:49;26.42;;;5.80;;
50781;SDS011;36749;37.428;-121.972;2024-02-16T04:39:15;28.80;;;6.32;;
50781;SDS011;36749;37.428;-121.972;2024-02-16T04:41:42;20.20;;;5.22;;
50781;SDS011;36749;37.428;-121.972;2024-02-16T04:44:08;23.80;;;5.50;;
50781;SDS011;36749;37.428;-121.972;2024-02-16T04:46:35;18.73;;;5.57;;
50781;SDS011;36749;37.428;-121.972;2024-02-16T04:49:01;19.83;;;4.68;;
50781;SDS011;36749;37.428;-121.972;2024-02-16T04:51:27;22.45;;;5.25;;
50781;SDS011;36749;37.428;-121.972;2024-02-16T04:53:53;20.98;;;4.30;;
50781;SDS011;36749;37.428;-121.972;2024-02-16T04:56:19;20.83;;;5.63;;
50781;SDS011;36749;37.428;-121.972;2024-02-16T04:58:46;23.90;;;4.90;;
50781;SDS011;36749;37.428;-121.972;2024-02-16T05:01:12;25.85;;;5.45;;
50781;SDS011;36749;37.428;-121.972;2024-02-16T05:03:39;24.30;;;4.95;;
50781;SDS011;36749;37.428;-121.972;2024-02-16T05:06:08;22.65;;;5.13;;
50781;SDS011;36749;37.428;-121.972;2024-02-16T05:08:34;26.00;;;5.13;;
50781;SDS011;36749;37.428;-121.972;2024-02-16T05:11:00;23.63;;;4.78;;
50781;SDS011;36749;37.428;-121.972;2024-02-16T05:13:27;21.33;;;5.03;;
50781;SDS011;36749;37.428;-121.972;2024-02-16T05:15:53;14.10;;;4.18;;
50781;SDS011;36749;37.428;-121.972;2024-02-16T05:18:23;16.38;;;4.63;;
50781;SDS011;36749;37.428;-121.972;2024-02-16T05:20:50;23.17;;;4.95;;
50781;SDS011;36749;37.428;-121.972;2024-02-16T05:23:16;17.15;;;5.15;;
50781;SDS011;36749;37.428;-121.972;2024-02-16T05:25:42;21.08;;;5.07;;
50781;SDS011;36749;37.428;-121.972;2024-02-16T05:28:08;15.27;;;5.20;;
50781;SDS011;36749;37.428;-121.972;2024-02-16T05:30:35;23.30;;;4.72;;
50781;SDS011;36749;37.428;-121.972;2024-02-16T05:33:01;20.35;;;4.90;;
50781;SDS011;36749;37.428;-121.972;2024-02-16T05:35:28;23.42;;;4.47;;
50781;SDS011;36749;37.428;-121.972;2024-02-16T05:37:59;19.33;;;5.43;;
50781;SDS011;36749;37.428;-121.972;2024-02-16T05:40:32;18.45;;;4.57;;
50781;SDS011;36749;37.428;-121.972;2024-02-16T05:43:10;22.20;;;5.35;;
50781;SDS011;36749;37.428;-121.972;2024-02-16T05:45:37;20.25;;;4.53;;
50781;SDS011;36749;37.428;-121.972;2024-02-16T05:48:03;23.05;;;5.00;;
50781;SDS011;36749;37.428;-121.972;2024-02-16T05:50:30;20.25;;;4.70;;
50781;SDS011;36749;37.428;-121.972;2024-02-16T05:52:56;26.08;;;5.82;;
50781;SDS011;36749;37.428;-121.972;2024-02-16T05:55:22;19.42;;;6.07;;
50781;SDS011;36749;37.428;-121.972;2024-02-16T05:57:49;16.05;;;5.40;;
50781;SDS011;36749;37.428;-121.972;2024-02-16T06:00:16;17.40;;;5.95;;
50781;SDS011;36749;37.428;-121.972;2024-02-16T06:02:42;17.77;;;5.40;;
50781;SDS011;36749;37.428;-121.972;2024-02-16T06:05:08;21.05;;;4.72;;
50781;SDS011;36749;37.428;-121.972;2024-02-16T06:07:35;20.40;;;5.30;;
50781;SDS011;36749;37.428;-121.972;2024-02-16T06:10:03;19.63;;;4.50;;
50781;SDS011;36749;37.428;-121.972;2024-02-16T06:12:32;20.10;;;5.18;;
50781;SDS011;36749;37.428;-121.972;2024-02-16T06:14:59;17.55;;;5.25;;
50781;SDS011;36749;37.428;-121.972;2024-02-16T06:17:25;22.85;;;5.55;;
50781;SDS011;36749;37.428;-121.972;2024-02-16T06:19:51;16.45;;;4.40;;
50781;SDS011;36749;37.428;-121.972;2024-02-16T06:22:18;21.48;;;6.03;;
50781;SDS011;36749;37.428;-121.972;2024-02-16T06:24:44;18.95;;;5.35;;
50781;SDS011;36749;37.428;-121.972;2024-02-16T06:27:11;17.98;;;4.88;;
50781;SDS011;36749;37.428;-121.972;2024-02-16T06:29:37;19.23;;;6.32;;
50781;SDS011;36749;37.428;-121.972;2024-02-16T06:32:03;18.73;;;5.70;;
50781;SDS011;36749;37.428;-121.972;2024-02-16T06:34:30;15.00;;;5.07;;
50781;SDS011;36749;37.428;-121.972;2024-02-16T06:36:56;14.82;;;5.10;;
50781;SDS011;36749;37.428;-121.972;2024-02-16T06:39:23;20.08;;;5.22;;
50781;SDS011;36749;37.428;-121.972;2024-02-16T06:41:49;18.27;;;5.40;;
50781;SDS011;36749;37.428;-121.972;2024-02-16T06:44:15;21.20;;;5.05;;
50781;SDS011;36749;37.428;-121.972;2024-02-16T06:46:42;20.58;;;5.43;;
50781;SDS011;36749;37.428;-121.972;2024-02-16T06:49:09;19.40;;;4.60;;
50781;SDS011;36749;37.428;-121.972;2024-02-16T06:51:35;15.48;;;4.53;;
50781;SDS011;36749;37.428;-121.972;2024-02-16T06:54:02;18.17;;;6.93;;
50781;SDS011;36749;37.428;-121.972;2024-02-16T06:56:29;21.25;;;5.68;;
50781;SDS011;36749;37.428;-121.972;2024-02-16T06:58:56;18.20;;;4.65;;
50781;SDS011;36749;37.428;-121.972;2024-02-16T07:01:22;15.35;;;4.20;;
50781;SDS011;36749;37.428;-121.972;2024-02-16T07:03:48;14.77;;;4.28;;
50781;SDS011;36749;37.428;-121.972;2024-02-16T07:06:16;16.60;;;5.22;;
50781;SDS011;36749;37.428;-121.972;2024-02-16T07:08:42;24.70;;;5.68;;
50781;SDS011;36749;37.428;-121.972;2024-02-16T07:11:09;12.93;;;4.72;;
50781;SDS011;36749;37.428;-121.972;2024-02-16T07:13:39;17.05;;;4.75;;
50781;SDS011;36749;37.428;-121.972;2024-02-16T07:16:07;23.73;;;5.20;;
50781;SDS011;36749;37.428;-121.972;2024-02-16T07:18:34;18.67;;;5.28;;
50781;SDS011;36749;37.428;-121.972;2024-02-16T07:21:01;21.08;;;5.82;;
50781;SDS011;36749;37.428;-121.972;2024-02-16T07:23:27;16.48;;;5.10;;
50781;SDS011;36749;37.428;-121.972;2024-02-16T07:25:54;22.30;;;7.22;;
50781;SDS011;36749;37.428;-121.972;2024-02-16T07:28:22;18.50;;;6.05;;
50781;SDS011;36749;37.428;-121.972;2024-02-16T07:30:49;19.85;;;6.22;;
50781;SDS011;36749;37.428;-121.972;2024-02-16T07:33:15;20.35;;;6.32;;
50781;SDS011;36749;37.428;-121.972;2024-02-16T07:35:42;21.33;;;5.70;;
50781;SDS011;36749;37.428;-121.972;2024-02-16T07:38:09;24.15;;;5.97;;
50781;SDS011;36749;37.428;-121.972;2024-02-16T07:40:35;19.48;;;5.97;;
50781;SDS011;36749;37.428;-121.972;2024-02-16T07:43:02;16.65;;;5.47;;
50781;SDS011;36749;37.428;-121.972;2024-02-16T07:45:29;21.42;;;6.68;;
50781;SDS011;36749;37.428;-121.972;2024-02-16T07:47:55;19.10;;;6.63;;
50781;SDS011;36749;37.428;-121.972;2024-02-16T07:50:22;15.48;;;5.43;;
50781;SDS011;36749;37.428;-121.972;2024-02-16T07:52:49;21.30;;;6.80;;
50781;SDS011;36749;37.428;-121.972;2024-02-16T07:55:16;17.05;;;5.25;;
50781;SDS011;36749;37.428;-121.972;2024-02-16T07:57:46;21.55;;;7.50;;
50781;SDS011;36749;37.428;-121.972;2024-02-16T08:00:12;18.50;;;5.82;;
50781;SDS011;36749;37.428;-121.972;2024-02-16T08:02:41;22.73;;;6.82;;
50781;SDS011;36749;37.428;-121.972;2024-02-16T08:05:09;20.92;;;6.10;;
50781;SDS011;36749;37.428;-121.972;2024-02-16T08:07:37;18.67;;;6.40;;
50781;SDS011;36749;37.428;-121.972;2024-02-16T08:10:10;19.17;;;6.50;;
50781;SDS011;36749;37.428;-121.972;2024-02-16T08:12:37;20.42;;;5.65;;
50781;SDS011;36749;37.428;-121.972;2024-02-16T08:15:04;19.05;;;6.40;;
50781;SDS011;36749;37.428;-121.972;2024-02-16T08:17:32;22.67;;;5.78;;
50781;SDS011;36749;37.428;-121.972;2024-02-16T08:19:59;21.80;;;5.90;;
50781;SDS011;36749;37.428;-121.972;2024-02-16T08:22:26;18.20;;;6.75;;
50781;SDS011;36749;37.428;-121.972;2024-02-16T08:24:52;16.10;;;5.72;;
50781;SDS011;36749;37.428;-121.972;2024-02-16T08:27:18;19.40;;;6.72;;
50781;SDS011;36749;37.428;-121.972;2024-02-16T08:29:44;18.40;;;6.43;;
50781;SDS011;36749;37.428;-121.972;2024-02-16T08:32:10;16.38;;;5.88;;
50781;SDS011;36749;37.428;-121.972;2024-02-16T08:34:37;21.77;;;7.07;;
50781;SDS011;36749;37.428;-121.972;2024-02-16T08:37:04;21.27;;;6.25;;
50781;SDS011;36749;37.428;-121.972;2024-02-16T08:39:31;20.10;;;6.47;;
50781;SDS011;36749;37.428;-121.972;2024-02-16T08:41:59;21.15;;;7.15;;
50781;SDS011;36749;37.428;-121.972;2024-02-16T08:44:26;18.25;;;6.60;;
50781;SDS011;36749;37.428;-121.972;2024-02-16T08:46:52;16.13;;;5.07;;
50781;SDS011;36749;37.428;-121.972;2024-02-16T08:49:19;17.75;;;5.95;;
50781;SDS011;36749;37.428;-121.972;2024-02-16T08:51:47;21.70;;;5.57;;
50781;SDS011;36749;37.428;-121.972;2024-02-16T08:54:13;13.63;;;5.45;;
50781;SDS011;36749;37.428;-121.972;2024-02-16T08:56:39;15.90;;;5.07;;
50781;SDS011;36749;37.428;-121.972;2024-02-16T08:59:06;15.57;;;6.03;;
50781;SDS011;36749;37.428;-121.972;2024-02-16T09:01:32;16.92;;;6.25;;
50781;SDS011;36749;37.428;-121.972;2024-02-16T09:04:08;18.33;;;5.95;;
50781;SDS011;36749;37.428;-121.972;2024-02-16T09:06:34;13.30;;;4.80;;
50781;SDS011;36749;37.428;-121.972;2024-02-16T09:09:00;16.65;;;5.05;;
50781;SDS011;36749;37.428;-121.972;2024-02-16T09:11:27;11.90;;;4.60;;
50781;SDS011;36749;37.428;-121.972;2024-02-16T09:13:53;19.23;;;5.97;;
50781;SDS011;36749;37.428;-121.972;2024-02-16T09:16:19;17.30;;;5.65;;
50781;SDS011;36749;37.428;-121.972;2024-02-16T09:18:45;14.90;;;5.38;;
50781;SDS011;36749;37.428;-121.972;2024-02-16T09:21:13;16.50;;;5.35;;
50781;SDS011;36749;37.428;-121.972;2024-02-16T09:23:40;14.77;;;4.63;;
50781;SDS011;36749;37.428;-121.972;2024-02-16T09:26:06;21.45;;;6.20;;
50781;SDS011;36749;37.428;-121.972;2024-02-16T09:28:38;16.58;;;5.40;;
50781;SDS011;36749;37.428;-121.972;2024-02-16T09:31:07;13.60;;;4.68;;
50781;SDS011;36749;37.428;-121.972;2024-02-16T09:33:34;17.20;;;5.65;;
50781;SDS011;36749;37.428;-121.972;2024-02-16T09:36:03;20.85;;;5.95;;
50781;SDS011;36749;37.428;-121.972;2024-02-16T09:38:30;10.15;;;4.15;;
50781;SDS011;36749;37.428;-121.972;2024-02-16T09:40:57;14.65;;;4.72;;
50781;SDS011;36749;37.428;-121.972;2024-02-16T09:43:24;16.48;;;5.70;;
50781;SDS011;36749;37.428;-121.972;2024-02-16T09:45:58;17.63;;;5.07;;
50781;SDS011;36749;37.428;-121.972;2024-02-16T09:48:28;14.38;;;5.25;;
50781;SDS011;36749;37.428;-121.972;2024-02-16T09:50:55;21.42;;;5.63;;
50781;SDS011;36749;37.428;-121.972;2024-02-16T09:53:24;18.33;;;5.47;;
50781;SDS011;36749;37.428;-121.972;2024-02-16T09:55:52;14.05;;;5.10;;
50781;SDS011;36749;37.428;-121.972;2024-02-16T09:58:18;14.13;;;5.43;;
50781;SDS011;36749;37.428;-121.972;2024-02-16T10:00:48;16.00;;;5.38;;
50781;SDS011;36749;37.428;-121.972;2024-02-16T10:03:22;17.97;;;5.53;;
50781;SDS011;36749;37.428;-121.972;2024-02-16T10:05:49;15.73;;;5.80;;
50781;SDS011;36749;37.428;-121.972;2024-02-16T10:08:17;17.88;;;4.90;;
50781;SDS011;36749;37.428;-121.972;2024-02-16T10:10:43;14.25;;;4.93;;
50781;SDS011;36749;37.428;-121.972;2024-02-16T10:13:09;19.13;;;5.10;;
50781;SDS011;36749;37.428;-121.972;2024-02-16T10:15:37;12.98;;;5.13;;
50781;SDS011;36749;37.428;-121.972;2024-02-16T10:18:06;19.05;;;5.90;;
50781;SDS011;36749;37.428;-121.972;2024-02-16T10:20:34;14.10;;;4.60;;
50781;SDS011;36749;37.428;-121.972;2024-02-16T10:23:11;15.80;;;4.43;;
50781;SDS011;36749;37.428;-121.972;2024-02-16T10:25:38;20.42;;;4.78;;
50781;SDS011;36749;37.428;-121.972;2024-02-16T10:28:10;9.73;;;4.47;;
50781;SDS011;36749;37.428;-121.972;2024-02-16T10:30:39;12.15;;;5.00;;
50781;SDS011;36749;37.428;-121.972;2024-02-16T10:33:09;15.27;;;5.88;;
50781;SDS011;36749;37.428;-121.972;2024-02-16T10:35:39;13.90;;;5.20;;
50781;SDS011;36749;37.428;-121.972;2024-02-16T10:38:07;15.27;;;5.00;;
50781;SDS011;36749;37.428;-121.972;2024-02-16T10:40:37;15.10;;;4.80;;
50781;SDS011;36749;37.428;-121.972;2024-02-16T10:43:07;13.60;;;4.07;;
50781;SDS011;36749;37.428;-121.972;2024-02-16T10:45:35;16.02;;;6.40;;
50781;SDS011;36749;37.428;-121.972;2024-02-16T10:48:05;15.23;;;5.13;;
50781;SDS011;36749;37.428;-121.972;2024-02-16T10:50:33;18.95;;;5.47;;
50781;SDS011;36749;37.428;-121.972;2024-02-16T10:53:04;19.50;;;4.68;;
50781;SDS011;36749;37.428;-121.972;2024-02-16T10:55:41;16.95;;;5.25;;
50781;SDS011;36749;37.428;-121.972;2024-02-16T10:58:09;13.70;;;4.65;;
50781;SDS011;36749;37.428;-121.972;2024-02-16T11:00:58;13.70;;;5.35;;
50781;SDS011;36749;37.428;-121.972;2024-02-16T11:03:24;19.42;;;5.85;;
50781;SDS011;36749;37.428;-121.972;2024-02-16T11:05:51;19.40;;;5.28;;
50781;SDS011;36749;37.428;-121.972;2024-02-16T11:08:18;18.80;;;5.50;;
50781;SDS011;36749;37.428;-121.972;2024-02-16T11:10:58;15.57;;;5.57;;
50781;SDS011;36749;37.428;-121.972;2024-02-16T11:13:27;16.10;;;5.72;;
50781;SDS011;36749;37.428;-121.972;2024-02-16T11:16:01;16.63;;;6.18;;
50781;SDS011;36749;37.428;-121.972;2024-02-16T11:18:42;17.58;;;5.40;;
50781;SDS011;36749;37.428;-121.972;2024-02-16T11:21:12;16.02;;;6.05;;
50781;SDS011;36749;37.428;-121.972;2024-02-16T11:23:40;18.27;;;5.85;;
50781;SDS011;36749;37.428;-121.972;2024-02-16T11:26:10;20.48;;;5.75;;
50781;SDS011;36749;37.428;-121.972;2024-02-16T11:28:38;17.80;;;6.20;;
50781;SDS011;36749;37.428;-121.972;2024-02-16T11:31:08;21.70;;;7.68;;
50781;SDS011;36749;37.428;-121.972;2024-02-16T11:33:34;15.55;;;6.78;;
50781;SDS011;36749;37.428;-121.972;2024-02-16T11:36:01;17.98;;;6.93;;
50781;SDS011;36749;37.428;-121.972;2024-02-16T11:38:33;19.52;;;6.45;;
50781;SDS011;36749;37.428;-121.972;2024-02-16T11:41:01;20.88;;;6.43;;
50781;SDS011;36749;37.428;-121.972;2024-02-16T11:43:29;16.45;;;6.07;;
50781;SDS011;36749;37.428;-121.972;2024-02-16T11:45:57;17.67;;;6.15;;
50781;SDS011;36749;37.428;-121.972;2024-02-16T11:48:24;20.35;;;7.50;;
50781;SDS011;36749;37.428;-121.972;2024-02-16T11:50:59;27.15;;;8.27;;
50781;SDS011;36749;37.428;-121.972;2024-02-16T11:53:27;20.52;;;7.35;;
50781;SDS011;36749;37.428;-121.972;2024-02-16T11:55:56;22.65;;;8.48;;
50781;SDS011;36749;37.428;-121.972;2024-02-16T11:58:23;17.77;;;7.15;;
50781;SDS011;36749;37.428;-121.972;2024-02-16T12:00:50;16.92;;;6.30;;
50781;SDS011;36749;37.428;-121.972;2024-02-16T12:05:55;15.02;;;6.30;;
50781;SDS011;36749;37.428;-121.972;2024-02-16T12:08:23;17.45;;;6.10;;
50781;SDS011;36749;37.428;-121.972;2024-02-16T12:10:50;16.52;;;7.30;;
50781;SDS011;36749;37.428;-121.972;2024-02-16T12:13:17;21.33;;;6.45;;
50781;SDS011;36749;37.428;-121.972;2024-02-16T12:15:48;17.00;;;6.45;;
50781;SDS011;36749;37.428;-121.972;2024-02-16T12:18:24;19.60;;;6.28;;
50781;SDS011;36749;37.428;-121.972;2024-02-16T12:20:58;14.25;;;6.03;;
50781;SDS011;36749;37.428;-121.972;2024-02-16T12:23:28;15.95;;;5.88;;
50781;SDS011;36749;37.428;-121.972;2024-02-16T12:25:58;16.45;;;5.85;;
50781;SDS011;36749;37.428;-121.972;2024-02-16T12:28:26;14.10;;;5.40;;
50781;SDS011;36749;37.428;-121.972;2024-02-16T12:30:54;18.45;;;6.53;;
50781;SDS011;36749;37.428;-121.972;2024-02-16T12:33:22;14.68;;;5.40;;
50781;SDS011;36749;37.428;-121.972;2024-02-16T12:35:48;20.05;;;6.15;;
50781;SDS011;36749;37.428;-121.972;2024-02-16T12:38:14;14.77;;;6.20;;
50781;SDS011;36749;37.428;-121.972;2024-02-16T12:40:45;16.92;;;6.10;;
50781;SDS011;36749;37.428;-121.972;2024-02-16T12:43:12;21.30;;;5.85;;
50781;SDS011;36749;37.428;-121.972;2024-02-16T12:45:39;19.55;;;6.43;;
50781;SDS011;36749;37.428;-121.972;2024-02-16T12:48:05;16.85;;;6.82;;
50781;SDS011;36749;37.428;-121.972;2024-02-16T12:50:32;16.33;;;5.53;;
50781;SDS011;36749;37.428;-121.972;2024-02-16T12:52:58;15.88;;;5.20;;
50781;SDS011;36749;37.428;-121.972;2024-02-16T12:55:25;17.00;;;5.28;;
50781;SDS011;36749;37.428;-121.972;2024-02-16T12:57:51;15.75;;;5.78;;
50781;SDS011;36749;37.428;-121.972;2024-02-16T13:00:17;15.27;;;5.78;;
50781;SDS011;36749;37.428;-121.972;2024-02-16T13:02:44;18.23;;;6.05;;
50781;SDS011;36749;37.428;-121.972;2024-02-16T13:05:10;14.88;;;5.68;;
50781;SDS011;36749;37.428;-121.972;2024-02-16T13:07:39;14.55;;;5.20;;
50781;SDS011;36749;37.428;-121.972;2024-02-16T13:10:07;17.35;;;6.53;;
50781;SDS011;36749;37.428;-121.972;2024-02-16T13:12:34;14.98;;;5.68;;
50781;SDS011;36749;37.428;-121.972;2024-02-16T13:15:02;13.23;;;5.97;;
50781;SDS011;36749;37.428;-121.972;2024-02-16T13:17:30;16.98;;;5.78;;
50781;SDS011;36749;37.428;-121.972;2024-02-16T13:19:56;17.63;;;6.47;;
50781;SDS011;36749;37.428;-121.972;2024-02-16T13:22:32;15.15;;;6.40;;
50781;SDS011;36749;37.428;-121.972;2024-02-16T13:24:59;15.13;;;5.78;;
50781;SDS011;36749;37.428;-121.972;2024-02-16T13:27:25;15.82;;;5.97;;
50781;SDS011;36749;37.428;-121.972;2024-02-16T13:29:51;20.50;;;6.38;;
50781;SDS011;36749;37.428;-121.972;2024-02-16T13:32:17;16.20;;;6.60;;
50781;SDS011;36749;37.428;-121.972;2024-02-16T13:34:43;18.30;;;7.00;;
50781;SDS011;36749;37.428;-121.972;2024-02-16T13:37:09;18.95;;;7.57;;
50781;SDS011;36749;37.428;-121.972;2024-02-16T13:39:36;21.20;;;6.82;;
50781;SDS011;36749;37.428;-121.972;2024-02-16T13:42:02;22.02;;;6.32;;
50781;SDS011;36749;37.428;-121.972;2024-02-16T13:44:28;16.98;;;6.20;;
50781;SDS011;36749;37.428;-121.972;2024-02-16T13:46:54;20.08;;;7.20;;
50781;SDS011;36749;37.428;-121.972;2024-02-16T13:49:21;18.63;;;7.63;;
50781;SDS011;36749;37.428;-121.972;2024-02-16T13:51:47;20.17;;;7.57;;
50781;SDS011;36749;37.428;-121.972;2024-02-16T13:54:13;17.45;;;6.22;;
50781;SDS011;36749;37.428;-121.972;2024-02-16T13:56:39;18.67;;;6.75;;
50781;SDS011;36749;37.428;-121.972;2024-02-16T13:59:05;20.60;;;7.30;;